createdAt,value
2023-04-13T00:00:54.562Z,92.9
2023-04-13T00:05:51.082Z,93.1
2023-04-13T00:11:33.569Z,93.3
2023-04-13T00:17:14.155Z,94.3
2023-04-13T00:26:50.882Z,94.0
2023-04-13T00:31:37.243Z,93.9
2023-04-13T00:36:43.622Z,94.6
2023-04-13T00:41:49.998Z,94.4
2023-04-13T00:47:20.489Z,94.9
2023-04-13T00:52:03.929Z,94.7
2023-04-13T01:02:37.123Z,95.8
2023-04-13T01:12:54.654Z,95.6
2023-04-13T01:17:37.032Z,95.3
2023-04-13T01:22:43.374Z,95.0
2023-04-13T01:27:49.901Z,96.2
2023-04-13T01:32:57.520Z,96.2
2023-04-13T01:38:03.982Z,96.3
2023-04-13T01:43:10.463Z,96.1
2023-04-13T01:48:16.955Z,97.3
2023-04-13T01:53:54.959Z,97.3
2023-04-13T01:58:33.476Z,98.1
2023-04-13T02:03:30.068Z,97.7
2023-04-13T02:13:52.887Z,98.4
2023-04-13T02:19:23.305Z,98.1
2023-04-13T02:24:25.806Z,98.2
2023-04-13T02:34:18.616Z,98.7
2023-04-13T02:39:52.705Z,98.5
2023-04-13T02:44:55.099Z,99.7
2023-04-13T02:50:05.406Z,99.6
2023-04-13T02:54:47.765Z,99.8
2023-04-13T03:00:16.004Z,99.9
2023-04-13T03:05:02.459Z,99.9
2023-04-13T03:10:08.699Z,99.9
2023-04-13T03:15:15.108Z,99.9
2023-04-13T03:20:21.494Z,99.9
2023-04-13T03:25:52.050Z,99.9
2023-04-13T03:31:30.588Z,99.9
2023-04-13T03:35:30.808Z,99.9
2023-04-13T03:40:54.782Z,99.9
2023-04-13T03:51:07.571Z,99.9
2023-04-13T03:56:09.903Z,99.9
2023-04-13T04:01:36.352Z,99.9
2023-04-13T04:06:22.945Z,99.9
2023-04-13T04:16:35.832Z,99.9
2023-04-13T04:21:42.160Z,99.9
2023-04-13T04:31:54.927Z,99.9
2023-04-13T04:37:03.497Z,99.9
2023-04-13T04:42:07.656Z,99.9
2023-04-13T04:47:34.260Z,99.9
2023-04-13T04:52:20.810Z,99.9
2023-04-13T04:57:28.462Z,99.9
2023-04-13T05:02:37.505Z,99.9
2023-04-13T05:07:29.879Z,99.9
2023-04-13T05:13:09.334Z,99.9
2023-04-13T05:17:52.807Z,99.9
2023-04-13T05:22:59.199Z,99.9
2023-04-13T05:33:11.940Z,99.9
2023-04-13T05:38:08.326Z,99.9
2023-04-13T05:43:24.697Z,99.9
2023-04-13T05:48:20.439Z,99.9
2023-04-13T05:54:02.039Z,99.9
2023-04-13T05:58:44.367Z,99.9
2023-04-13T06:03:50.956Z,99.9
2023-04-13T06:08:57.336Z,99.9
2023-04-13T06:14:03.544Z,99.9
2023-04-13T06:19:09.889Z,99.9
2023-04-13T06:24:16.270Z,99.9
2023-04-13T06:29:22.791Z,99.9
2023-04-13T06:34:29.168Z,99.9
2023-04-13T06:39:35.532Z,99.9
2023-04-13T06:44:32.020Z,99.9
2023-04-13T06:49:48.285Z,99.9
2023-04-13T06:54:54.678Z,99.9
2023-04-13T07:00:29.800Z,99.9
2023-04-13T07:05:31.721Z,99.9
2023-04-13T07:10:48.696Z,99.9
2023-04-13T07:15:21.028Z,99.9
2023-04-13T07:20:26.521Z,99.9
2023-04-13T07:25:33.885Z,99.9
2023-04-13T07:31:00.410Z,99.9
2023-04-13T07:36:00.770Z,99.9
2023-04-13T07:40:53.191Z,99.9
2023-04-13T07:46:01.738Z,99.9
2023-04-13T07:56:14.486Z,99.9
2023-04-13T08:01:48.539Z,99.9
2023-04-13T08:06:30.838Z,99.9
2023-04-13T08:11:37.189Z,99.9
2023-04-13T08:16:43.760Z,99.9
2023-04-13T08:21:49.974Z,99.9
2023-04-13T08:26:56.404Z,99.9
2023-04-13T08:32:02.915Z,99.9
2023-04-13T08:42:15.641Z,99.9
2023-04-13T08:47:22.315Z,99.9
2023-04-13T08:52:28.450Z,99.9
2023-04-13T08:57:34.785Z,99.9
2023-04-13T09:02:52.352Z,99.9
2023-04-13T09:08:11.605Z,99.9
2023-04-13T09:12:43.885Z,99.9
2023-04-13T09:18:00.329Z,99.9
2023-04-13T09:23:30.751Z,99.9
2023-04-13T09:28:12.471Z,99.9
2023-04-13T09:33:09.856Z,99.9
2023-04-13T09:38:26.242Z,99.9
2023-04-13T09:43:22.644Z,99.9
2023-04-13T09:49:24.155Z,99.9
2023-04-13T09:53:45.686Z,99.9
2023-04-13T09:58:52.075Z,99.9
2023-04-13T10:03:58.777Z,99.9
2023-04-13T10:09:04.927Z,99.9
2023-04-13T10:14:11.323Z,99.9
2023-04-13T10:19:17.684Z,99.9
2023-04-13T10:24:24.063Z,99.9
2023-04-13T10:29:30.619Z,99.9
2023-04-13T10:34:37.166Z,99.9
2023-04-13T10:39:43.540Z,99.9
2023-04-13T10:44:49.978Z,99.9
2023-04-13T10:49:56.329Z,99.9
2023-04-13T11:00:09.152Z,99.9
2023-04-13T11:05:29.546Z,99.9
2023-04-13T11:10:23.006Z,99.9
2023-04-13T11:15:29.388Z,99.9
2023-04-13T11:20:35.759Z,99.9
2023-04-13T11:25:42.134Z,99.9
2023-04-13T11:30:48.631Z,99.9
2023-04-13T11:35:54.961Z,99.9
2023-04-13T11:41:56.639Z,99.9
2023-04-13T11:46:09.134Z,99.9
2023-04-13T11:51:15.366Z,99.9
2023-04-13T11:56:21.741Z,99.9
2023-04-13T12:02:01.535Z,99.9
2023-04-13T12:06:35.222Z,99.9
2023-04-13T12:12:29.886Z,99.9
2023-04-13T12:17:03.909Z,99.9
2023-04-13T12:21:57.509Z,99.9
2023-04-13T12:32:08.257Z,99.4
2023-04-13T12:42:22.107Z,99.3
2023-04-13T12:47:28.517Z,99.5
2023-04-13T12:52:34.978Z,99.1
2023-04-13T12:57:41.627Z,98.6
2023-04-13T13:03:14.513Z,98.9
2023-04-13T13:07:54.459Z,99.0
2023-04-13T13:13:24.844Z,99.3
2023-04-13T13:18:46.438Z,99.4
2023-04-13T13:23:13.582Z,99.4
2023-04-13T13:28:20.095Z,99.8
2023-04-13T13:43:59.308Z,99.9
2023-04-13T13:48:45.650Z,99.9
2023-04-13T13:58:58.597Z,98.8
2023-04-13T14:04:24.955Z,98.3
2023-04-13T14:14:39.791Z,97.7
2023-04-13T14:19:17.090Z,97.5
2023-04-13T14:24:33.494Z,97.4
2023-04-13T14:29:39.870Z,97.6
2023-04-13T14:34:46.350Z,97.6
2023-04-13T14:39:52.634Z,97.5
2023-04-13T14:44:59.056Z,97.3
2023-04-13T14:50:05.451Z,96.6
2023-04-13T14:55:11.812Z,95.4
2023-04-13T15:00:18.218Z,94.5
2023-04-13T15:05:25.058Z,95.4
2023-04-13T15:11:06.599Z,95.1
2023-04-13T15:20:45.722Z,94.2
2023-04-13T15:25:50.756Z,93.4
2023-04-13T15:30:58.107Z,93.7
2023-04-13T15:36:04.497Z,93.9
2023-04-13T15:42:13.049Z,94.1
2023-04-13T15:51:23.809Z,94.4
2023-04-13T15:56:54.210Z,94.6
2023-04-13T16:01:36.623Z,94.5
2023-04-13T16:11:49.333Z,93.8
2023-04-13T16:16:55.712Z,93.8
2023-04-13T16:22:02.113Z,93.6
2023-04-13T16:27:08.506Z,91.8
2023-04-13T16:32:14.840Z,92.6
2023-04-13T16:37:21.249Z,92.3
2023-04-13T16:42:27.617Z,92.1
2023-04-13T16:47:34.144Z,92.0
2023-04-13T16:52:30.377Z,92.2
2023-04-13T16:58:06.796Z,92.2
2023-04-13T17:02:53.179Z,92.5
2023-04-13T17:07:49.516Z,92.5
2023-04-13T17:13:05.893Z,92.8
2023-04-13T17:18:12.466Z,92.2
2023-04-13T17:24:14.859Z,92.5
2023-04-13T17:28:25.106Z,92.2
2023-04-13T17:33:31.485Z,92.8
2023-04-13T17:38:37.882Z,92.8
2023-04-13T17:43:44.391Z,93.0
2023-04-13T17:48:50.888Z,92.9
2023-04-13T17:59:03.644Z,93.0
2023-04-13T18:04:10.134Z,92.6
2023-04-13T18:09:16.522Z,92.5
2023-04-13T18:19:29.612Z,92.4
2023-04-13T18:24:36.075Z,92.3
2023-04-13T18:30:02.569Z,92.3
2023-04-13T18:34:48.824Z,92.4
2023-04-13T18:39:55.216Z,92.4
2023-04-13T18:46:03.922Z,92.5
2023-04-13T18:50:22.046Z,92.4
2023-04-13T19:01:52.059Z,92.4
2023-04-13T19:05:26.171Z,92.4
2023-04-13T19:10:57.660Z,92.3
2023-04-13T19:16:04.200Z,92.4
2023-04-13T19:20:46.519Z,92.4
2023-04-13T19:25:52.880Z,92.5
2023-04-13T19:30:59.275Z,92.6
2023-04-13T19:36:05.685Z,92.7
2023-04-13T19:41:36.217Z,92.7
2023-04-13T19:46:18.565Z,92.5
2023-04-13T19:51:44.989Z,93.1
2023-04-13T19:56:31.320Z,93.1
2023-04-13T20:01:37.755Z,93.0
2023-04-13T20:06:44.190Z,93.1
2023-04-13T20:17:36.285Z,93.1
2023-04-13T20:22:42.571Z,93.0
2023-04-13T20:27:48.932Z,93.1
2023-04-13T20:32:55.325Z,93.1
2023-04-13T20:38:25.732Z,93.2
2023-04-13T20:43:08.109Z,93.1
2023-04-13T20:58:27.403Z,93.2
2023-04-13T21:03:34.050Z,93.2
2023-04-13T21:08:40.155Z,93.2
2023-04-13T21:13:48.162Z,93.2
2023-04-13T21:18:54.691Z,93.3
2023-04-13T21:24:01.291Z,93.2
2023-04-13T21:29:07.444Z,93.3
2023-04-13T21:34:27.806Z,93.2
2023-04-13T21:49:53.062Z,93.2
2023-04-13T21:55:01.623Z,93.2
2023-04-13T22:04:54.492Z,93.2
2023-04-13T22:10:39.979Z,93.2
2023-04-13T22:15:06.353Z,93.2
2023-04-13T22:21:07.792Z,93.2
2023-04-13T22:25:40.078Z,93.2
2023-04-13T22:30:16.409Z,93.1
2023-04-13T22:35:52.862Z,93.1
2023-04-13T22:41:03.265Z,93.2
2023-04-13T22:45:45.590Z,93.1
2023-04-13T22:50:51.998Z,93.0
2023-04-13T22:56:18.452Z,93.0
2023-04-13T23:01:03.796Z,93.0
2023-04-13T23:06:11.384Z,93.0
2023-04-13T23:21:30.592Z,92.9
2023-04-13T23:26:35.975Z,93.0
2023-04-13T23:31:46.629Z,93.2
2023-04-13T23:41:59.393Z,93.0
2023-04-13T23:47:25.917Z,92.9
2023-04-13T23:52:36.234Z,92.9
2023-04-13T23:57:18.552Z,92.9
